Startpagina
METAR-TAF:

METAR-TAF

Vliegvelden :

Torrington Municipal Airport

Torrington, Wyoming, Verenigde Staten

breedte: 42-03-53N, lengte: 104-09-10W, hoogte: 1282 m

Actueel weer

Dit bericht is 33 minuten geleden gemaakt, om 16:53 UTC
Wind 20 kt uit het noordwesten met uitschieters tot 27 kt
Temperatuur 11°C
Vochtigheid 40%
Druk 1021 hPa
Zicht: 16.1 km
Weinig wolken op 6000 ft
Gebroken wolken op 7000 ft
Geheel bewolkt op 11000 ft

METAR: KTOR 181653Z AUTO 32020G27KT 10SM FEW060 BKN070 OVC110 11/M02 A3016 RMK AO2 PK WND 33035/1632 SLP208 T01111022

Tijdstip: 11:26 (17:26 UTC)


TAF: ontbreekt

Waarnemingen en weersverwachtingen van meer dan 4000 vliegvelden (METAR en TAF).

De beschikbare stations zijn de gele en rode punten op de kaart.

Ga met uw muis naar het station om de naam te zien.

Klik dan om waarnemingen en weersverwachtingen te zien.

kaart wijzigen: klik op de groene knoppen met een zwart kruis om in te zoomen, op de groene knop met een streepje om uit te zoomen of op de groene pijlen voor aangrenzende kaarten.


METAR-TAF: